Time;durP1;ratioP1;P1;durP2;ratioP2;P2;SDS_P1;SDS_P2;PMS_P1;PMS_P2;Temp;Humidity;BMP_temperature;BMP_pressure;BME280_temperature;BME280_humidity;BME280_pressure;Samples;Min_cycle;Max_cycle;Signal;HPM_P1;HPM_P2
2021/08/15 00:02:25;;;;;;;4.07;2.80;;;21.10;85.60;;;;;;5104145;28;20051;-86
2021/08/15 00:04:50;;;;;;;4.20;2.35;;;21.00;85.60;;;;;;5103042;28;20055;-88
2021/08/15 00:07:18;;;;;;;11.77;3.03;;;21.00;86.00;;;;;;5099276;28;20111;-86
2021/08/15 00:09:43;;;;;;;4.85;2.55;;;21.00;85.70;;;;;;5107356;28;20097;-85
2021/08/15 00:12:09;;;;;;;4.78;2.25;;;20.90;85.60;;;;;;5103608;28;20040;-86
2021/08/15 00:14:35;;;;;;;5.40;2.63;;;20.90;85.60;;;;;;5090722;28;20040;-86
2021/08/15 00:17:00;;;;;;;5.38;2.90;;;20.90;85.60;;;;;;5087227;28;20041;-86
2021/08/15 00:19:26;;;;;;;4.85;2.90;;;20.90;86.20;;;;;;5093006;28;20040;-85
2021/08/15 00:21:52;;;;;;;3.35;2.65;;;20.80;86.60;;;;;;5095652;28;20039;-86
2021/08/15 00:24:17;;;;;;;4.75;2.72;;;20.80;86.30;;;;;;5106430;28;20458;-86
2021/08/15 00:26:43;;;;;;;3.67;2.65;;;20.70;86.60;;;;;;5100208;28;20039;-86
2021/08/15 00:29:09;;;;;;;6.45;2.70;;;20.70;86.80;;;;;;5110336;28;20031;-86
2021/08/15 00:31:34;;;;;;;6.80;3.20;;;20.80;87.30;;;;;;5095568;28;20036;-85
2021/08/15 00:34:00;;;;;;;5.15;3.22;;;20.70;87.90;;;;;;5093978;28;20066;-85
2021/08/15 00:36:25;;;;;;;5.47;3.20;;;20.70;88.00;;;;;;5112849;28;20027;-86
2021/08/15 00:38:51;;;;;;;6.03;3.33;;;20.70;88.40;;;;;;5109406;28;20060;-85
2021/08/15 00:41:17;;;;;;;7.18;3.17;;;20.60;88.40;;;;;;5106270;28;20043;-86
2021/08/15 00:43:42;;;;;;;6.53;3.17;;;20.60;88.20;;;;;;5096840;28;20036;-86
2021/08/15 00:46:13;;;;;;;4.53;2.63;;;20.60;88.10;;;;;;5095155;28;20074;-85
2021/08/15 00:48:39;;;;;;;8.63;3.15;;;20.60;88.60;;;;;;5105855;28;20316;-86
2021/08/15 00:51:05;;;;;;;4.75;3.28;;;20.50;88.50;;;;;;5102962;28;20039;-87
2021/08/15 00:53:33;;;;;;;7.05;3.30;;;20.50;88.20;;;;;;5101403;28;20040;-87
2021/08/15 00:55:59;;;;;;;6.30;3.58;;;20.50;88.70;;;;;;5098616;28;20413;-87
2021/08/15 00:58:31;;;;;;;4.03;2.72;;;20.40;89.30;;;;;;5096736;28;20048;-87
2021/08/15 01:01:01;;;;;;;4.82;3.17;;;20.40;89.20;;;;;;5106746;27;20093;-87
2021/08/15 01:03:26;;;;;;;5.90;3.22;;;20.40;88.90;;;;;;5094965;28;20097;-87
2021/08/15 01:05:53;;;;;;;4.70;3.35;;;20.40;89.10;;;;;;5101465;28;20036;-87
2021/08/15 01:08:18;;;;;;;6.30;3.47;;;20.30;89.00;;;;;;5102670;28;20032;-87
2021/08/15 01:10:44;;;;;;;5.13;2.92;;;20.40;88.60;;;;;;5106833;28;20040;-87
2021/08/15 01:13:11;;;;;;;4.75;3.03;;;20.30;88.70;;;;;;5133438;28;20020;-87
2021/08/15 01:15:37;;;;;;;5.40;3.25;;;20.30;88.80;;;;;;5106438;28;20390;-87
2021/08/15 01:18:17;;;;;;;3.92;2.30;;;20.30;88.70;;;;;;5093503;28;20044;-87
2021/08/15 01:20:42;;;;;;;5.93;3.40;;;20.30;88.50;;;;;;5099135;28;20047;-87
2021/08/15 01:23:08;;;;;;;7.07;3.47;;;20.20;88.30;;;;;;5102321;28;20097;-86
2021/08/15 01:25:33;;;;;;;7.30;3.33;;;20.20;88.50;;;;;;5094561;28;20036;-87
2021/08/15 01:27:59;;;;;;;7.93;2.97;;;20.20;88.20;;;;;;5101397;28;20047;-87
2021/08/15 01:30:26;;;;;;;5.15;2.97;;;20.20;88.60;;;;;;5105336;28;20394;-86
2021/08/15 01:32:51;;;;;;;8.05;2.88;;;20.20;88.20;;;;;;5089779;28;20043;-87
2021/08/15 01:35:17;;;;;;;3.83;2.53;;;20.10;87.60;;;;;;5100415;28;20044;-87
2021/08/15 01:37:43;;;;;;;5.45;2.15;;;20.10;87.80;;;;;;5100990;28;20032;-86
2021/08/15 01:40:09;;;;;;;5.60;2.65;;;20.10;88.20;;;;;;5105823;28;20445;-87
2021/08/15 01:42:34;;;;;;;4.72;2.72;;;20.10;88.40;;;;;;5092612;28;20640;-86
2021/08/15 01:45:05;;;;;;;3.97;2.53;;;20.10;88.70;;;;;;5099410;28;20098;-87
2021/08/15 01:47:30;;;;;;;3.58;2.42;;;20.10;88.70;;;;;;5106408;28;20036;-88
2021/08/15 01:49:56;;;;;;;4.95;2.88;;;20.10;88.60;;;;;;5107561;28;20355;-87
2021/08/15 01:52:22;;;;;;;5.90;2.58;;;20.10;88.60;;;;;;5105963;28;20046;-88
2021/08/15 01:54:48;;;;;;;4.15;2.35;;;20.00;88.30;;;;;;5097465;28;20045;-87
2021/08/15 01:57:13;;;;;;;4.68;2.78;;;20.00;88.50;;;;;;5101073;28;20297;-87
2021/08/15 01:59:39;;;;;;;4.22;2.28;;;20.00;88.50;;;;;;5100857;28;20111;-87
2021/08/15 02:02:04;;;;;;;5.68;3.47;;;20.00;89.00;;;;;;5090669;28;20081;-87
2021/08/15 02:04:30;;;;;;;3.40;2.35;;;19.90;89.00;;;;;;5100421;28;20071;-86
2021/08/15 02:06:55;;;;;;;5.63;2.90;;;20.00;89.20;;;;;;5104447;28;20119;-88
2021/08/15 02:09:21;;;;;;;4.80;2.70;;;19.90;89.50;;;;;;5103175;28;20040;-88
2021/08/15 02:11:47;;;;;;;6.43;3.05;;;19.90;89.70;;;;;;5106859;28;20365;-87
2021/08/15 02:14:12;;;;;;;4.00;2.78;;;19.90;89.80;;;;;;5099592;28;20100;-86
2021/08/15 02:16:38;;;;;;;6.38;3.22;;;19.80;89.60;;;;;;5103705;28;20293;-87
2021/08/15 02:19:03;;;;;;;5.50;3.53;;;19.80;89.90;;;;;;5102813;28;20059;-88
2021/08/15 02:21:29;;;;;;;5.47;3.03;;;19.80;90.00;;;;;;5125184;28;20019;-88
2021/08/15 02:23:55;;;;;;;11.63;3.53;;;19.70;90.00;;;;;;5112909;28;20036;-87
2021/08/15 02:26:22;;;;;;;4.55;2.45;;;19.70;90.10;;;;;;5106940;28;20024;-88
2021/08/15 02:28:47;;;;;;;3.97;2.60;;;19.70;90.30;;;;;;5101429;28;20383;-87
2021/08/15 02:31:13;;;;;;;4.65;2.60;;;19.60;90.40;;;;;;5096853;28;20096;-87
2021/08/15 02:33:38;;;;;;;6.55;2.95;;;19.60;90.30;;;;;;5105786;28;20097;-87
2021/08/15 02:36:04;;;;;;;5.00;3.03;;;19.60;90.40;;;;;;5099689;28;20035;-87
2021/08/15 02:38:29;;;;;;;7.57;3.42;;;19.60;90.60;;;;;;5082437;28;20044;-88
2021/08/15 02:40:55;;;;;;;6.65;3.47;;;19.50;90.60;;;;;;5091813;28;20048;-86
2021/08/15 02:43:20;;;;;;;5.65;3.40;;;19.50;90.80;;;;;;5094207;28;20039;-87
2021/08/15 02:45:46;;;;;;;8.70;2.75;;;19.40;90.70;;;;;;5094460;28;20033;-88
2021/08/15 02:48:12;;;;;;;5.13;2.50;;;19.40;90.90;;;;;;5110302;28;20150;-87
2021/08/15 02:50:37;;;;;;;5.80;2.70;;;19.30;90.90;;;;;;5107245;28;20048;-87
2021/08/15 02:53:03;;;;;;;5.72;2.60;;;19.30;91.00;;;;;;5096138;28;20386;-87
2021/08/15 02:55:28;;;;;;;5.28;2.78;;;19.20;91.10;;;;;;5102310;28;20036;-88
2021/08/15 02:57:54;;;;;;;3.90;2.55;;;19.20;91.20;;;;;;5108052;28;20050;-88
2021/08/15 03:00:19;;;;;;;4.30;2.63;;;19.10;91.40;;;;;;5097865;28;20060;-87
2021/08/15 03:02:45;;;;;;;8.10;2.60;;;19.10;91.70;;;;;;5090532;28;20386;-87
2021/08/15 03:05:11;;;;;;;6.97;2.65;;;19.00;91.80;;;;;;5109536;28;20028;-87
2021/08/15 03:07:37;;;;;;;6.82;3.85;;;19.00;92.00;;;;;;5129262;28;20031;-87
2021/08/15 03:10:05;;;;;;;4.57;2.72;;;18.90;92.10;;;;;;5119034;28;20073;-88
2021/08/15 03:12:30;;;;;;;3.40;2.42;;;18.90;92.10;;;;;;5109065;28;20447;-87
2021/08/15 03:14:56;;;;;;;4.07;2.92;;;18.90;92.10;;;;;;5104658;28;20039;-87
2021/08/15 03:17:21;;;;;;;5.50;2.78;;;18.80;92.10;;;;;;5087673;28;20146;-88
2021/08/15 03:19:47;;;;;;;5.78;3.45;;;18.80;92.20;;;;;;5090425;28;20097;-88
2021/08/15 03:22:12;;;;;;;5.22;2.90;;;18.80;92.20;;;;;;5101326;28;20054;-87
2021/08/15 03:24:38;;;;;;;5.65;3.20;;;18.70;92.30;;;;;;5104674;28;20085;-87
2021/08/15 03:27:03;;;;;;;7.07;3.17;;;18.70;92.30;;;;;;5087924;28;20032;-88
2021/08/15 03:29:29;;;;;;;5.32;2.78;;;18.70;92.40;;;;;;5108340;28;20413;-88
2021/08/15 03:31:54;;;;;;;5.40;3.00;;;18.70;92.50;;;;;;5109092;28;20043;-87
2021/08/15 03:34:21;;;;;;;5.10;2.25;;;18.60;92.20;;;;;;5111786;28;20039;-87
2021/08/15 03:36:48;;;;;;;6.13;2.90;;;18.60;92.40;;;;;;5108755;28;20108;-87
2021/08/15 03:39:14;;;;;;;7.55;3.30;;;18.60;92.20;;;;;;5113607;28;20039;-87
2021/08/15 03:41:40;;;;;;;5.25;2.55;;;18.50;92.20;;;;;;5093427;28;20047;-88
2021/08/15 03:44:06;;;;;;;4.30;2.78;;;18.50;92.30;;;;;;5108344;28;20286;-87
2021/08/15 03:46:31;;;;;;;7.03;3.33;;;18.50;92.50;;;;;;5092972;28;20140;-88
2021/08/15 03:48:57;;;;;;;5.68;2.75;;;18.40;92.60;;;;;;5106465;28;20032;-87
2021/08/15 03:51:22;;;;;;;7.00;2.80;;;18.40;92.80;;;;;;5128363;28;20054;-87
2021/08/15 03:53:48;;;;;;;3.20;2.47;;;18.40;92.80;;;;;;5098274;28;20040;-87
2021/08/15 03:56:13;;;;;;;5.38;2.50;;;18.40;92.90;;;;;;5104856;28;20629;-87
2021/08/15 03:58:39;;;;;;;7.97;3.00;;;18.40;92.90;;;;;;5099976;28;20128;-88
2021/08/15 04:01:04;;;;;;;5.43;2.72;;;18.30;92.90;;;;;;5101871;28;20098;-87
2021/08/15 04:03:30;;;;;;;11.75;3.60;;;18.30;92.90;;;;;;5098289;28;20066;-86
2021/08/15 04:05:57;;;;;;;4.70;2.60;;;18.30;93.00;;;;;;5095093;28;20295;-88
2021/08/15 04:08:23;;;;;;;4.65;2.50;;;18.30;93.10;;;;;;5105642;28;20414;-88
2021/08/15 04:10:49;;;;;;;4.68;2.80;;;18.30;93.10;;;;;;5100627;28;20041;-87
2021/08/15 04:13:15;;;;;;;4.80;2.83;;;18.30;93.20;;;;;;5101972;28;20040;-87
2021/08/15 04:15:40;;;;;;;8.45;3.00;;;18.30;93.30;;;;;;5101656;28;20039;-87
2021/08/15 04:18:06;;;;;;;4.88;2.63;;;18.20;93.30;;;;;;5092689;28;20036;-88
2021/08/15 04:20:31;;;;;;;4.82;2.38;;;18.20;93.40;;;;;;5088889;28;20138;-88
2021/08/15 04:22:57;;;;;;;4.53;2.90;;;18.20;93.30;;;;;;5098269;28;20035;-88
2021/08/15 04:25:22;;;;;;;6.35;2.80;;;18.20;93.30;;;;;;5100596;28;20070;-88
2021/08/15 04:27:48;;;;;;;6.45;3.05;;;18.20;93.40;;;;;;5125126;28;20051;-88
2021/08/15 04:30:13;;;;;;;4.10;2.45;;;18.20;93.50;;;;;;5104405;28;20111;-87
2021/08/15 04:32:39;;;;;;;5.45;3.30;;;18.20;93.50;;;;;;5096886;28;20036;-87
2021/08/15 04:35:06;;;;;;;3.80;2.72;;;18.20;93.40;;;;;;5097364;28;20050;-87
2021/08/15 04:37:31;;;;;;;7.78;3.13;;;18.20;93.50;;;;;;5095898;28;20093;-88
2021/08/15 04:39:57;;;;;;;6.25;3.08;;;18.20;93.60;;;;;;5111903;28;20115;-87
2021/08/15 04:42:22;;;;;;;5.03;2.65;;;18.20;93.60;;;;;;5098614;28;20090;-88
2021/08/15 04:44:48;;;;;;;4.95;3.50;;;18.20;93.50;;;;;;5090830;28;20032;-89
2021/08/15 04:47:14;;;;;;;7.07;3.28;;;18.20;93.60;;;;;;5091468;28;20488;-88
2021/08/15 04:49:39;;;;;;;4.63;3.17;;;18.20;93.70;;;;;;5107124;28;20111;-88
2021/08/15 04:52:05;;;;;;;7.38;2.78;;;18.20;93.70;;;;;;5083079;28;20173;-89
2021/08/15 04:54:31;;;;;;;4.75;3.03;;;18.20;93.70;;;;;;5105535;28;20047;-88
2021/08/15 04:56:59;;;;;;;5.30;3.08;;;18.20;93.70;;;;;;5102445;28;20036;-88
2021/08/15 04:59:25;;;;;;;5.70;2.90;;;18.20;93.70;;;;;;5103497;28;20016;-89
2021/08/15 05:01:51;;;;;;;6.70;2.70;;;18.20;93.90;;;;;;5106413;28;20056;-88
2021/08/15 05:04:16;;;;;;;3.88;2.42;;;18.20;94.00;;;;;;5093571;28;20055;-87
2021/08/15 05:06:42;;;;;;;5.88;2.95;;;18.20;94.00;;;;;;5097235;28;20042;-89
2021/08/15 05:09:08;;;;;;;4.63;2.83;;;18.20;94.10;;;;;;5094458;28;20045;-89
2021/08/15 05:11:34;;;;;;;4.88;3.05;;;18.20;94.10;;;;;;5096422;28;20036;-86
2021/08/15 05:14:00;;;;;;;6.60;2.97;;;18.20;94.10;;;;;;5098051;28;20028;-87
2021/08/15 05:16:26;;;;;;;9.85;3.33;;;18.20;94.10;;;;;;5094509;28;20119;-86
2021/08/15 05:18:52;;;;;;;8.32;3.38;;;18.30;94.10;;;;;;5093742;28;20495;-86
2021/08/15 05:21:18;;;;;;;4.63;3.17;;;18.30;94.20;;;;;;5094830;28;20598;-86
2021/08/15 05:23:44;;;;;;;7.10;4.05;;;18.40;94.10;;;;;;5094975;28;20028;-88
2021/08/15 05:26:09;;;;;;;3.78;2.78;;;18.40;94.10;;;;;;5092288;28;20028;-87
2021/08/15 05:28:35;;;;;;;6.40;2.65;;;18.50;94.00;;;;;;5096628;28;20032;-86
2021/08/15 05:31:02;;;;;;;5.03;2.55;;;18.50;93.90;;;;;;5095606;28;20294;-84
2021/08/15 05:33:34;;;;;;;4.78;2.72;;;18.60;93.80;;;;;;5106614;28;20062;-89
2021/08/15 05:35:59;;;;;;;6.30;3.47;;;18.60;93.70;;;;;;5110184;28;20044;-86
2021/08/15 05:38:25;;;;;;;7.28;3.38;;;18.70;93.50;;;;;;5095405;28;20530;-89
2021/08/15 05:40:50;;;;;;;4.15;2.50;;;18.70;93.40;;;;;;5079803;28;20044;-86
2021/08/15 05:43:16;;;;;;;6.28;3.25;;;18.80;93.10;;;;;;5094686;28;20063;-88
2021/08/15 05:45:42;;;;;;;3.97;2.75;;;18.90;92.90;;;;;;5094550;28;20124;-89
2021/08/15 05:48:08;;;;;;;4.93;3.47;;;18.90;92.80;;;;;;5094598;28;20103;-88
2021/08/15 05:50:34;;;;;;;3.72;2.50;;;19.00;92.60;;;;;;5094520;28;20040;-89
2021/08/15 05:53:00;;;;;;;4.97;3.05;;;19.00;92.50;;;;;;5087132;28;20565;-87
2021/08/15 05:55:25;;;;;;;17.27;3.42;;;19.10;92.50;;;;;;5095718;28;20134;-88
2021/08/15 05:57:51;;;;;;;10.10;3.30;;;19.20;92.30;;;;;;5094160;28;20114;-89
2021/08/15 06:00:17;;;;;;;5.53;3.17;;;19.30;92.00;;;;;;5085487;28;20655;-86
2021/08/15 06:02:43;;;;;;;10.20;3.20;;;19.30;92.00;;;;;;5081112;28;20032;-88
2021/08/15 06:05:15;;;;;;;6.35;3.22;;;19.40;92.00;;;;;;5085152;28;20032;-88
2021/08/15 06:07:41;;;;;;;5.40;3.28;;;19.40;92.00;;;;;;5086205;28;20047;-89
2021/08/15 06:10:07;;;;;;;5.20;2.78;;;19.50;91.80;;;;;;5108308;28;20023;-89
2021/08/15 06:12:37;;;;;;;9.10;3.22;;;19.50;91.70;;;;;;5096473;28;20075;-88
2021/08/15 06:15:05;;;;;;;6.38;2.97;;;19.60;91.70;;;;;;5099295;28;20039;-88
2021/08/15 06:17:31;;;;;;;7.68;3.35;;;19.60;91.60;;;;;;5086226;28;20067;-90
2021/08/15 06:19:56;;;;;;;10.43;3.20;;;19.70;91.50;;;;;;5099879;28;20453;-88
2021/08/15 06:22:22;;;;;;;6.03;3.05;;;19.80;91.30;;;;;;5087971;28;20052;-88
2021/08/15 06:24:47;;;;;;;6.32;3.38;;;19.90;91.00;;;;;;5107984;28;20035;-88
2021/08/15 06:27:13;;;;;;;7.60;3.10;;;19.90;90.90;;;;;;5100569;28;20381;-88
2021/08/15 06:29:38;;;;;;;7.03;2.88;;;19.90;90.80;;;;;;5095612;28;20650;-88
2021/08/15 06:32:04;;;;;;;6.13;2.97;;;20.00;90.90;;;;;;5086553;28;20276;-88
2021/08/15 06:34:30;;;;;;;7.75;3.03;;;20.10;90.50;;;;;;5107705;28;20402;-89
2021/08/15 06:36:55;;;;;;;5.78;3.33;;;20.10;90.50;;;;;;5135431;28;20088;-88
2021/08/15 06:39:21;;;;;;;7.63;3.53;;;20.20;90.60;;;;;;5120638;28;20067;-87
2021/08/15 06:41:46;;;;;;;4.25;2.60;;;20.20;90.50;;;;;;5120806;28;20044;-88
2021/08/15 06:44:12;;;;;;;9.25;3.35;;;20.30;90.30;;;;;;5101842;28;20036;-88
2021/08/15 06:46:37;;;;;;;6.55;3.35;;;20.40;90.10;;;;;;5105026;28;20096;-87
2021/08/15 06:49:03;;;;;;;7.50;3.53;;;20.40;90.30;;;;;;5092113;28;20047;-88
2021/08/15 06:51:28;;;;;;;5.25;2.88;;;20.50;90.50;;;;;;5096690;28;20043;-88
2021/08/15 06:53:54;;;;;;;4.60;2.67;;;20.50;90.30;;;;;;5096178;28;20040;-88
2021/08/15 06:56:19;;;;;;;7.97;3.30;;;20.60;90.30;;;;;;5089796;28;20033;-89
2021/08/15 06:58:45;;;;;;;5.85;2.90;;;20.70;90.10;;;;;;5082632;28;20134;-88
2021/08/15 07:01:11;;;;;;;5.57;3.20;;;20.80;89.40;;;;;;5089351;28;20043;-88
2021/08/15 07:03:37;;;;;;;4.80;3.00;;;20.80;90.00;;;;;;5092935;28;20042;-87
2021/08/15 07:06:02;;;;;;;9.55;2.88;;;20.90;90.00;;;;;;5092939;28;20126;-88
2021/08/15 07:08:28;;;;;;;8.50;3.20;;;21.00;89.30;;;;;;5096195;28;20394;-88
2021/08/15 07:10:54;;;;;;;7.25;2.75;;;21.00;89.10;;;;;;5091422;28;20418;-88
2021/08/15 07:13:22;;;;;;;8.55;3.58;;;21.10;89.10;;;;;;5113477;28;20047;-88
2021/08/15 07:15:52;;;;;;;7.25;3.38;;;21.20;89.30;;;;;;5105519;28;20036;-88
2021/08/15 07:18:19;;;;;;;6.47;3.22;;;21.20;88.40;;;;;;5092757;28;20070;-87
2021/08/15 07:20:46;;;;;;;7.57;3.38;;;21.40;88.70;;;;;;5089761;28;20039;-87
2021/08/15 07:23:12;;;;;;;10.10;3.50;;;21.40;88.60;;;;;;5082802;28;20039;-88
2021/08/15 07:25:38;;;;;;;5.75;3.00;;;21.50;88.10;;;;;;5098033;28;20067;-88
2021/08/15 07:28:04;;;;;;;8.60;3.00;;;21.60;87.90;;;;;;5092656;28;20071;-88
2021/08/15 07:30:32;;;;;;;9.60;3.05;;;21.70;87.60;;;;;;5090799;28;20036;-88
2021/08/15 07:33:02;;;;;;;5.22;3.25;;;21.70;87.70;;;;;;5090480;28;20055;-89
2021/08/15 07:35:30;;;;;;;6.13;3.75;;;21.80;87.80;;;;;;5099984;28;20043;-88
2021/08/15 07:37:56;;;;;;;6.80;2.65;;;22.00;87.10;;;;;;5101491;28;20393;-88
2021/08/15 07:40:22;;;;;;;8.45;3.33;;;22.10;87.20;;;;;;5109553;28;20066;-87
2021/08/15 07:42:50;;;;;;;11.45;3.80;;;22.20;87.30;;;;;;5094193;28;20043;-88
2021/08/15 07:45:24;;;;;;;8.30;3.40;;;22.30;86.20;;;;;;5086021;28;20033;-87
2021/08/15 07:47:49;;;;;;;9.88;3.67;;;22.40;86.20;;;;;;5102492;28;20048;-88
2021/08/15 07:50:16;;;;;;;8.60;3.65;;;22.50;85.70;;;;;;5111474;28;20047;-87
2021/08/15 07:52:41;;;;;;;10.43;4.22;;;22.70;85.10;;;;;;5101022;28;20478;-88
2021/08/15 07:55:08;;;;;;;6.20;3.22;;;22.80;85.80;;;;;;5099365;28;20044;-88
2021/08/15 07:57:34;;;;;;;8.90;3.47;;;23.00;84.80;;;;;;5100599;28;20036;-88
2021/08/15 07:59:59;;;;;;;8.75;3.35;;;23.10;84.40;;;;;;5114396;28;20104;-88
2021/08/15 08:02:25;;;;;;;8.70;3.05;;;23.20;84.00;;;;;;5102652;28;20060;-87
2021/08/15 08:04:51;;;;;;;7.82;2.97;;;23.40;83.60;;;;;;5099945;28;20078;-89
2021/08/15 08:07:19;;;;;;;5.80;2.78;;;23.50;83.50;;;;;;5097245;28;20044;-88
2021/08/15 08:09:49;;;;;;;9.93;3.10;;;23.50;81.80;;;;;;5077396;28;20122;-88
2021/08/15 08:12:16;;;;;;;7.80;2.90;;;23.70;82.10;;;;;;5078189;28;20033;-87
2021/08/15 08:14:41;;;;;;;10.73;3.72;;;23.70;81.40;;;;;;5078273;28;20037;-87
2021/08/15 08:17:08;;;;;;;9.27;2.63;;;23.80;81.60;;;;;;5087807;28;20051;-86
2021/08/15 08:19:33;;;;;;;7.40;2.80;;;23.80;81.80;;;;;;5097332;28;20036;-88
2021/08/15 08:21:59;;;;;;;12.05;3.08;;;23.80;82.00;;;;;;5096793;28;20036;-87
2021/08/15 08:24:24;;;;;;;9.40;2.80;;;23.90;82.40;;;;;;5097511;28;20036;-86
2021/08/15 08:26:50;;;;;;;7.60;3.40;;;24.00;81.00;;;;;;5096990;28;20138;-88
2021/08/15 08:29:15;;;;;;;9.43;2.60;;;24.00;81.10;;;;;;5096323;28;20032;-87
2021/08/15 08:31:41;;;;;;;6.88;2.67;;;24.10;80.60;;;;;;5097505;28;20044;-88
2021/08/15 08:34:06;;;;;;;8.13;2.72;;;24.10;79.00;;;;;;5101566;28;20046;-87
2021/08/15 08:36:32;;;;;;;8.02;2.70;;;24.20;79.70;;;;;;5107414;28;20135;-87
2021/08/15 08:38:57;;;;;;;8.10;3.28;;;24.30;79.20;;;;;;5098038;28;20325;-87
2021/08/15 08:41:23;;;;;;;7.93;3.35;;;24.40;78.30;;;;;;5096837;28;20047;-87
2021/08/15 08:43:49;;;;;;;6.18;2.83;;;24.40;78.60;;;;;;5097088;28;20130;-87
2021/08/15 08:46:17;;;;;;;7.22;3.10;;;24.40;78.60;;;;;;5096582;28;20032;-86
2021/08/15 08:48:43;;;;;;;7.07;2.72;;;24.50;78.10;;;;;;5097656;28;20444;-87
2021/08/15 08:51:09;;;;;;;7.03;2.75;;;24.60;77.20;;;;;;5097111;28;20071;-87
2021/08/15 08:53:35;;;;;;;8.95;2.30;;;24.70;77.50;;;;;;5096289;28;20031;-87
2021/08/15 08:56:02;;;;;;;4.53;2.13;;;24.70;78.00;;;;;;5098344;28;20040;-87
2021/08/15 08:58:28;;;;;;;5.47;3.08;;;24.90;78.00;;;;;;5097130;28;20048;-87
2021/08/15 09:00:53;;;;;;;6.40;2.95;;;25.00;77.30;;;;;;5097088;28;20075;-87
2021/08/15 09:03:19;;;;;;;5.97;2.28;;;25.10;76.80;;;;;;5096259;28;20039;-87
2021/08/15 09:05:53;;;;;;;9.57;2.80;;;25.20;76.30;;;;;;5096979;28;20035;-87
2021/08/15 09:08:27;;;;;;;5.97;2.72;;;25.30;75.30;;;;;;5097837;28;20444;-87
2021/08/15 09:10:53;;;;;;;8.57;2.55;;;25.40;75.30;;;;;;5107016;28;20040;-87
2021/08/15 09:13:26;;;;;;;4.03;2.05;;;25.50;75.20;;;;;;5100922;28;20317;-87
2021/08/15 09:15:56;;;;;;;5.22;2.90;;;25.60;76.40;;;;;;5097081;28;20035;-88
2021/08/15 09:18:32;;;;;;;6.38;2.92;;;25.60;77.20;;;;;;5097576;28;20051;-87
2021/08/15 09:20:57;;;;;;;7.45;3.17;;;25.70;76.50;;;;;;5095623;28;20127;-86
2021/08/15 09:23:29;;;;;;;7.10;2.53;;;25.80;76.70;;;;;;5095731;28;20115;-88
2021/08/15 09:26:20;;;;;;;5.13;2.27;;;25.90;76.60;;;;;;5096226;28;20116;-87
2021/08/15 09:28:49;;;;;;;11.63;2.63;;;26.00;74.70;;;;;;5095472;28;20325;-87
2021/08/15 09:31:32;;;;;;;5.05;2.60;;;26.10;74.30;;;;;;5097020;28;20052;-86
2021/08/15 09:34:01;;;;;;;5.93;2.47;;;26.10;74.30;;;;;;5093198;28;20155;-87
2021/08/15 09:36:40;;;;;;;7.75;2.60;;;26.20;75.90;;;;;;5101340;28;20126;-87
2021/08/15 09:39:07;;;;;;;9.27;2.45;;;26.20;75.00;;;;;;5082374;28;20068;-81
2021/08/15 09:41:38;;;;;;;5.18;2.20;;;26.30;74.50;;;;;;5108521;28;20108;-82
2021/08/15 09:44:22;;;;;;;8.43;2.63;;;26.50;72.20;;;;;;5099682;28;20036;-81
2021/08/15 09:47:08;;;;;;;5.53;2.30;;;26.50;72.70;;;;;;5098043;28;20036;-81
2021/08/15 09:49:40;;;;;;;4.88;2.40;;;26.70;71.70;;;;;;5104083;28;20097;-86
2021/08/15 09:52:13;;;;;;;6.25;2.20;;;26.70;71.90;;;;;;5102944;28;20068;-86
2021/08/15 09:54:39;;;;;;;6.70;2.35;;;26.70;72.50;;;;;;5096689;28;20419;-85
2021/08/15 09:57:10;;;;;;;6.25;2.83;;;26.80;70.40;;;;;;5111460;28;20398;-86
2021/08/15 09:59:37;;;;;;;3.90;1.98;;;26.80;70.00;;;;;;5102737;28;20398;-84
2021/08/15 10:02:05;;;;;;;6.15;1.75;;;26.90;72.20;;;;;;5127947;28;20055;-85
2021/08/15 10:04:31;;;;;;;7.35;2.28;;;26.90;70.40;;;;;;5112292;28;20040;-85
2021/08/15 10:06:56;;;;;;;4.85;1.77;;;26.90;70.30;;;;;;5098136;28;20120;-86
2021/08/15 10:09:24;;;;;;;6.55;2.47;;;27.00;71.70;;;;;;5099073;28;20040;-85
2021/08/15 10:11:50;;;;;;;5.15;1.88;;;27.20;72.00;;;;;;5100223;28;20131;-85
2021/08/15 10:14:16;;;;;;;5.00;1.73;;;27.30;72.00;;;;;;5119744;28;20036;-85
2021/08/15 10:17:00;;;;;;;3.53;1.67;;;27.30;69.10;;;;;;5113237;28;20048;-84
2021/08/15 10:19:31;;;;;;;6.10;2.47;;;27.40;68.70;;;;;;5100360;28;20028;-86
2021/08/15 10:21:58;;;;;;;4.18;2.40;;;27.40;69.00;;;;;;5085899;28;20040;-84
2021/08/15 10:24:43;;;;;;;5.15;2.25;;;27.40;67.60;;;;;;5084297;28;20040;-84
2021/08/15 10:27:09;;;;;;;4.05;2.35;;;27.50;68.20;;;;;;5092772;28;20475;-86
2021/08/15 10:29:37;;;;;;;3.88;2.25;;;27.50;68.60;;;;;;5096422;28;20032;-82
2021/08/15 10:32:20;;;;;;;4.63;1.65;;;27.70;68.50;;;;;;5084445;28;20044;-81
2021/08/15 10:35:08;;;;;;;5.82;2.53;;;27.80;66.70;;;;;;5117977;28;20412;-81
2021/08/15 10:37:35;;;;;;;4.10;1.90;;;28.00;68.80;;;;;;5106634;28;20039;-82
2021/08/15 10:40:05;;;;;;;3.70;1.70;;;28.00;65.80;;;;;;5107326;28;20036;-81
2021/08/15 10:42:42;;;;;;;5.30;1.88;;;28.10;66.40;;;;;;5102231;28;20064;-81
2021/08/15 10:45:19;;;;;;;3.85;1.70;;;28.20;65.60;;;;;;5107228;28;20037;-82
2021/08/15 10:48:05;;;;;;;3.85;1.80;;;28.20;67.00;;;;;;5099664;28;20123;-87
2021/08/15 10:50:41;;;;;;;7.32;2.05;;;28.20;65.20;;;;;;5096591;28;20036;-85
2021/08/15 10:53:26;;;;;;;3.42;2.08;;;28.20;67.60;;;;;;5101585;28;20058;-86
2021/08/15 10:55:56;;;;;;;4.38;2.00;;;28.20;64.50;;;;;;5088735;28;20050;-85
2021/08/15 10:58:38;;;;;;;3.13;1.50;;;28.20;64.80;;;;;;5096361;28;20052;-84
2021/08/15 11:01:05;;;;;;;3.42;1.80;;;28.20;63.50;;;;;;5091598;28;20036;-84
2021/08/15 11:03:33;;;;;;;4.10;1.83;;;28.20;64.90;;;;;;5090589;28;20408;-83
2021/08/15 11:06:00;;;;;;;6.90;2.22;;;28.30;64.50;;;;;;5097553;28;20043;-84
2021/08/15 11:08:32;;;;;;;9.40;2.38;;;28.30;64.60;;;;;;5099979;28;20109;-83
2021/08/15 11:11:06;;;;;;;4.55;2.00;;;28.40;64.50;;;;;;5097898;28;20044;-84
2021/08/15 11:13:33;;;;;;;7.65;1.67;;;28.50;64.70;;;;;;5105992;28;20270;-84
2021/08/15 11:16:27;;;;;;;3.72;1.67;;;28.60;64.30;;;;;;5097357;28;20048;-84
2021/08/15 11:19:07;;;;;;;3.88;1.75;;;28.70;63.70;;;;;;5099565;28;20035;-82
2021/08/15 11:22:04;;;;;;;4.35;1.60;;;28.70;64.60;;;;;;5086920;28;20294;-84
2021/08/15 11:24:32;;;;;;;4.78;1.95;;;28.90;63.10;;;;;;5090606;28;20119;-84
2021/08/15 11:26:58;;;;;;;4.13;2.15;;;29.00;65.30;;;;;;5093444;28;20426;-86
2021/08/15 11:29:24;;;;;;;6.72;2.05;;;29.10;63.50;;;;;;5097096;28;20073;-84
2021/08/15 11:31:52;;;;;;;4.97;2.00;;;29.10;62.20;;;;;;5096528;28;20419;-85
2021/08/15 11:34:18;;;;;;;3.75;1.73;;;29.20;63.70;;;;;;5105818;28;20044;-86
2021/08/15 11:36:53;;;;;;;3.15;1.55;;;29.30;64.30;;;;;;5097428;28;20089;-84
2021/08/15 11:39:18;;;;;;;5.80;1.75;;;29.30;62.70;;;;;;5111412;28;20405;-84
2021/08/15 11:41:44;;;;;;;3.22;1.70;;;29.40;62.70;;;;;;5116798;28;20047;-87
2021/08/15 11:44:09;;;;;;;4.57;1.83;;;29.50;61.00;;;;;;5118352;28;20046;-84
2021/08/15 11:46:34;;;;;;;3.25;1.45;;;29.60;60.50;;;;;;5118738;28;20036;-84
2021/08/15 11:49:00;;;;;;;3.72;2.10;;;29.60;61.00;;;;;;5125626;28;20032;-85
2021/08/15 11:51:25;;;;;;;3.17;1.77;;;29.60;61.20;;;;;;5127892;28;20051;-85
2021/08/15 11:53:51;;;;;;;3.72;1.73;;;29.60;60.80;;;;;;5120275;28;20074;-84
2021/08/15 11:56:18;;;;;;;5.38;1.80;;;29.60;62.60;;;;;;5118226;28;20047;-85
2021/08/15 11:58:44;;;;;;;3.17;1.63;;;29.70;60.30;;;;;;5117555;28;20050;-84
2021/08/15 12:01:10;;;;;;;7.47;1.60;;;29.80;61.60;;;;;;5117592;28;20047;-85
2021/08/15 12:03:36;;;;;;;3.55;2.53;;;29.90;61.10;;;;;;5118400;28;20040;-84
2021/08/15 12:06:04;;;;;;;4.00;1.50;;;30.00;59.10;;;;;;5117789;28;20036;-86
2021/08/15 12:08:38;;;;;;;5.30;2.13;;;30.10;59.10;;;;;;5117570;28;20267;-85
2021/08/15 12:11:24;;;;;;;4.00;1.60;;;30.10;59.80;;;;;;5118135;28;20039;-84
2021/08/15 12:13:53;;;;;;;2.60;1.92;;;30.20;59.60;;;;;;5118333;28;20035;-84
2021/08/15 12:16:23;;;;;;;3.30;1.40;;;30.30;60.00;;;;;;5118366;28;20039;-85
2021/08/15 12:18:48;;;;;;;3.88;1.48;;;30.40;58.50;;;;;;5117638;28;20043;-85
2021/08/15 12:21:19;;;;;;;3.33;1.40;;;30.50;56.30;;;;;;5117684;28;20132;-84
2021/08/15 12:24:08;;;;;;;3.80;1.55;;;30.60;55.40;;;;;;5118084;28;20031;-84
2021/08/15 12:26:57;;;;;;;3.95;1.50;;;30.50;55.80;;;;;;5131664;28;20058;-83
2021/08/15 12:29:31;;;;;;;4.15;1.77;;;30.40;57.10;;;;;;5119098;28;20043;-84
2021/08/15 12:32:22;;;;;;;2.67;1.45;;;30.50;60.00;;;;;;5117464;28;20039;-85
2021/08/15 12:34:53;;;;;;;3.38;1.60;;;30.50;54.50;;;;;;5117099;28;20316;-84
2021/08/15 12:37:24;;;;;;;5.35;1.50;;;30.70;53.10;;;;;;5116906;28;20445;-85
2021/08/15 12:40:10;;;;;;;2.92;1.30;;;30.80;54.20;;;;;;5116982;28;20309;-85
2021/08/15 12:42:37;;;;;;;2.85;1.10;;;30.90;54.60;;;;;;5117391;27;20040;-84
2021/08/15 12:45:06;;;;;;;4.32;1.95;;;30.70;54.70;;;;;;5117249;28;20027;-85
2021/08/15 12:47:34;;;;;;;3.42;1.33;;;30.70;54.90;;;;;;5117235;28;20126;-85
2021/08/15 12:50:03;;;;;;;3.33;1.27;;;30.60;54.60;;;;;;5117733;28;20035;-86